Date,TemperatureHighF,TemperatureAvgF,TemperatureLowF,DewpointHighF,DewpointAvgF,DewpointLowF,HumidityHigh,HumidityAvg,HumidityLow,PressureMaxIn,PressureMinIn,WindSpeedMaxMPH,WindSpeedAvgMPH,GustSpeedMaxMPH,PrecipitationSumIn
2012-12-1,40.9,39.1,36.6,38.7,34.7,30.5,95,84,78,30.41,30.31,11,3,11,0.00
2012-12-2,50.4,43.7,39.4,45.9,42.2,38.6,98,95,82,30.32,30.02,9,1,9,0.07
2012-12-3,63.2,51.1,42.4,52.4,47.4,41.3,98,88,63,30.15,30.00,11,2,11,0.00
2012-12-4,68.8,54.7,43.8,57.8,50.9,43.0,98,88,66,30.16,29.86,14,1,14,0.02
2012-12-5,57.4,49.5,33.6,53.3,38.6,19.6,93,67,45,30.16,29.81,22,5,22,0.02
2012-12-6,42.9,33.0,26.9,24.4,20.8,18.6,86,62,39,30.26,30.14,11,1,11,0.00
2012-12-7,42.2,34.9,25.4,41.7,33.0,22.8,98,93,82,30.19,29.91,1,0,1,0.18
2012-12-8,49.5,46.1,41.7,48.2,45.4,41.2,99,98,95,29.91,29.76,9,1,9,0.30
2012-12-9,48.4,44.2,41.1,47.9,42.6,38.0,99,94,84,30.14,29.89,15,2,15,0.23
2012-12-10,56.9,50.5,44.0,56.9,50.3,43.5,100,99,98,29.90,29.44,5,0,6,0.04
2012-12-11,54.6,44.8,38.1,54.6,37.3,30.9,100,76,57,30.10,29.47,17,3,17,0.05
2012-12-12,44.0,36.6,29.8,32.5,28.8,26.3,95,75,51,30.33,30.09,11,1,11,0.00
2012-12-13,47.7,35.6,27.7,30.3,26.6,24.5,93,72,43,30.36,30.22,8,0,8,0.00
2012-12-14,49.7,37.4,27.5,29.5,27.1,24.0,89,68,44,30.22,30.05,16,2,16,0.00
2012-12-15,48.6,38.7,29.9,37.3,32.2,25.8,92,78,60,30.21,30.08,7,0,7,0.00
2012-12-16,49.6,45.6,42.8,47.6,43.4,37.2,98,92,78,30.09,29.79,14,2,14,0.39
2012-12-17,44.7,42.4,40.0,44.4,41.8,39.2,99,98,96,29.81,29.50,12,2,12,0.27
2012-12-18,55.4,47.1,41.2,49.5,43.8,36.1,100,89,73,29.54,29.35,21,3,21,0.53
2012-12-19,48.1,42.1,34.6,36.1,30.9,27.4,82,65,51,30.04,29.54,24,5,24,0.00
2012-12-20,46.7,38.4,27.4,45.0,31.9,25.1,94,78,60,30.11,29.64,14,1,14,0.10
2012-12-21,57.7,44.6,35.4,56.5,39.3,28.9,98,82,66,29.64,28.99,31,7,31,0.90
2012-12-22,39.2,37.1,34.5,32.3,25.7,20.8,91,64,48,29.75,29.25,32,7,32,0.00
2012-12-23,43.4,37.0,30.1,27.4,23.6,18.6,70,59,37,29.86,29.75,17,4,17,0.00
2012-12-24,39.7,33.1,25.8,32.6,25.7,21.0,97,75,56,29.99,29.82,8,1,8,0.00
2012-12-25,40.1,36.1,29.3,34.6,31.6,24.6,98,84,72,30.15,29.80,16,3,16,0.17
2012-12-26,38.6,32.4,27.1,37.8,28.9,22.0,97,87,72,30.18,29.37,27,4,27,0.99
2012-12-27,40.3,36.2,30.0,38.7,31.3,21.1,97,83,69,29.77,29.17,27,8,27,0.58
2012-12-28,39.1,32.3,24.8,26.7,23.9,20.8,90,71,59,29.98,29.75,18,4,24,0.00
2012-12-29,33.2,30.6,24.3,31.5,28.1,22.1,96,90,81,29.95,29.40,11,1,11,0.00
2012-12-30,35.7,31.5,27.6,28.2,19.8,14.9,87,62,49,30.10,29.51,31,7,31,0.00
2012-12-31,37.2,32.9,26.2,27.2,22.4,14.9,74,65,58,30.11,29.80,22,4,22,0.01